Time;durP1;ratioP1;P1;durP2;ratioP2;P2;SDS_P1;SDS_P2;PMS_P1;PMS_P2;Temp;Humidity;BMP_temperature;BMP_pressure;BME280_temperature;BME280_humidity;BME280_pressure;Samples;Min_cycle;Max_cycle;Signal;HPM_P1;HPM_P2
2024/04/04 00:03:17;;;;;;;0.40;0.40;;;-1.50;99.90;;;;;;1919224;73;27706;-89
2024/04/04 00:06:13;;;;;;;0.80;0.80;;;-1.50;99.90;;;;;;1866994;75;25207;-89
2024/04/04 00:13:09;;;;;;;5.93;1.27;;;-1.50;99.90;;;;;;1983402;71;27468;-88
2024/04/04 00:16:16;;;;;;;0.70;0.70;;;-1.50;99.90;;;;;;1928487;73;25320;-89
2024/04/04 00:19:13;;;;;;;4.53;1.20;;;-1.40;99.90;;;;;;2015701;70;25649;-90
2024/04/04 00:22:15;;;;;;;0.97;0.97;;;-1.40;99.90;;;;;;1998744;70;25630;-89
2024/04/04 00:25:18;;;;;;;0.70;0.70;;;-1.40;99.90;;;;;;2009202;70;25190;-89
2024/04/04 00:28:10;;;;;;;0.40;0.40;;;-1.40;99.90;;;;;;2005803;70;25211;-88
2024/04/04 00:31:05;;;;;;;1.97;1.03;;;-1.40;99.90;;;;;;2013938;70;25224;-89
2024/04/04 00:33:57;;;;;;;1.80;1.00;;;-1.60;99.90;;;;;;2011352;70;25286;-89
2024/04/04 00:36:51;;;;;;;1.20;1.10;;;-1.60;99.90;;;;;;2010875;69;25277;-89
2024/04/04 00:39:45;;;;;;;0.73;0.73;;;-1.60;99.90;;;;;;1990433;70;25344;-89
2024/04/04 00:42:36;;;;;;;1.40;0.93;;;-1.60;99.90;;;;;;2019424;70;25157;-89
2024/04/04 00:45:36;;;;;;;1.03;0.80;;;-1.50;99.90;;;;;;2018304;70;25191;-88
2024/04/04 00:48:35;;;;;;;1.00;0.90;;;-1.40;99.90;;;;;;1997935;70;25275;-88
2024/04/04 00:51:26;;;;;;;1.60;1.03;;;-1.60;99.90;;;;;;2012695;70;25225;-88
2024/04/04 00:54:19;;;;;;;0.97;0.87;;;-1.60;99.90;;;;;;1935897;73;25728;-88
2024/04/04 01:02:30;;;;;;;1.43;1.03;;;-1.60;99.90;;;;;;2049545;69;26151;-88
2024/04/04 01:05:24;;;;;;;1.60;0.90;;;-1.70;99.90;;;;;;1990439;69;25662;-89
2024/04/04 01:08:14;;;;;;;0.70;0.70;;;-1.70;99.90;;;;;;1971660;72;26176;-88
2024/04/04 01:11:03;;;;;;;0.70;0.70;;;-1.70;99.90;;;;;;2019439;69;25707;-88
2024/04/04 01:14:26;;;;;;;0.90;0.90;;;-1.70;99.90;;;;;;1972761;71;25203;-88
2024/04/04 01:17:16;;;;;;;0.93;0.80;;;-1.70;99.90;;;;;;2003975;71;25626;-89
2024/04/04 01:20:19;;;;;;;0.70;0.70;;;-1.70;99.90;;;;;;1943712;71;25293;-89
2024/04/04 01:23:11;;;;;;;0.80;0.80;;;-1.70;99.90;;;;;;1955194;73;25154;-88
2024/04/04 01:26:03;;;;;;;0.77;0.77;;;-1.70;99.90;;;;;;1977138;71;25651;-88
2024/04/04 01:28:57;;;;;;;0.77;0.77;;;-1.70;99.90;;;;;;1971596;71;25190;-88
2024/04/04 01:31:47;;;;;;;4.63;0.80;;;-1.80;99.90;;;;;;1957722;72;25224;-88
2024/04/04 01:37:54;;;;;;;1.83;0.83;;;-1.80;99.90;;;;;;2005000;70;25301;-88
2024/04/04 01:40:51;;;;;;;0.77;0.63;;;-1.90;99.90;;;;;;1925264;73;25324;-88
2024/04/04 01:43:47;;;;;;;1.60;1.07;;;-1.90;99.90;;;;;;1964385;72;25204;-88
2024/04/04 01:46:41;;;;;;;0.77;0.50;;;-2.00;99.90;;;;;;1998405;71;25157;-88
2024/04/04 01:49:30;;;;;;;0.87;0.70;;;-2.00;99.90;;;;;;1997738;70;25197;-88
2024/04/04 01:52:24;;;;;;;2.37;0.60;;;-2.10;99.90;;;;;;1967331;70;25534;-89
2024/04/04 01:58:22;;;;;;;0.73;0.70;;;-2.10;99.90;;;;;;1930014;72;27444;-90
2024/04/04 02:01:17;;;;;;;2.93;0.90;;;-2.10;99.90;;;;;;1898407;73;25607;-89
2024/04/04 02:04:08;;;;;;;4.00;1.10;;;-2.00;99.90;;;;;;1896000;75;25278;-89
2024/04/04 02:07:00;;;;;;;0.80;0.80;;;-2.00;99.90;;;;;;1876710;75;25221;-89
2024/04/04 02:09:52;;;;;;;2.10;0.60;;;-2.00;99.90;;;;;;1895148;75;25251;-88
2024/04/04 02:12:46;;;;;;;0.60;0.60;;;-2.10;99.90;;;;;;1892054;75;25314;-88
2024/04/04 02:15:42;;;;;;;0.67;0.67;;;-2.30;99.90;;;;;;1904565;74;25628;-88
2024/04/04 02:18:33;;;;;;;1.47;0.90;;;-2.30;99.90;;;;;;1894129;75;25233;-88
2024/04/04 02:35:04;;;;;;;0.57;0.57;;;-2.20;99.90;;;;;;1965481;71;27633;-90
2024/04/04 02:37:54;;;;;;;1.00;1.00;;;-2.30;99.90;;;;;;1912789;75;25307;-89
2024/04/04 02:40:45;;;;;;;1.17;0.77;;;-2.40;99.90;;;;;;1899700;74;25734;-89
2024/04/04 02:43:34;;;;;;;1.57;0.80;;;-2.40;99.90;;;;;;1919044;74;25289;-88
2024/04/04 02:46:25;;;;;;;0.50;0.50;;;-2.40;99.90;;;;;;1913980;74;25642;-89
2024/04/04 02:49:14;;;;;;;0.53;0.53;;;-2.40;99.90;;;;;;1905374;75;25326;-90
2024/04/04 02:52:03;;;;;;;1.17;0.63;;;-2.50;99.90;;;;;;1904174;75;25218;-90
2024/04/04 02:54:54;;;;;;;2.33;0.80;;;-2.50;99.90;;;;;;1908163;75;25371;-89
2024/04/04 03:14:18;;;;;;;1.27;0.70;;;-2.60;99.90;;;;;;1958416;72;26535;-89
2024/04/04 03:17:08;;;;;;;1.33;0.90;;;-2.60;99.90;;;;;;1921371;73;25213;-89
2024/04/04 03:19:58;;;;;;;0.60;0.60;;;-2.70;99.90;;;;;;1931099;73;25614;-89
2024/04/04 03:22:48;;;;;;;0.80;0.80;;;-2.70;99.90;;;;;;1956209;72;25717;-88
2024/04/04 03:25:41;;;;;;;0.80;0.80;;;-2.70;99.90;;;;;;1961620;71;25270;-89
2024/04/04 03:28:31;;;;;;;1.43;0.60;;;-2.80;99.90;;;;;;1936033;72;25278;-88
2024/04/04 03:31:20;;;;;;;0.87;0.87;;;-2.80;99.90;;;;;;1936238;73;25194;-88
2024/04/04 03:34:11;;;;;;;0.67;0.67;;;-2.80;99.90;;;;;;1940289;72;25213;-89
2024/04/04 03:37:00;;;;;;;0.60;0.60;;;-2.80;99.90;;;;;;1897381;74;25342;-88
2024/04/04 03:43:02;;;;;;;2.97;0.80;;;-2.90;99.90;;;;;;1958344;72;26317;-89
2024/04/04 03:45:52;;;;;;;0.50;0.50;;;-2.90;99.90;;;;;;1942346;73;25835;-88
2024/04/04 03:48:41;;;;;;;1.87;0.83;;;-2.90;99.90;;;;;;2008673;70;25248;-88
2024/04/04 03:51:32;;;;;;;0.50;0.50;;;-2.80;99.90;;;;;;1955574;73;25297;-88
2024/04/04 03:57:03;;;;;;;0.60;0.60;;;-2.80;99.90;;;;;;1950378;72;26946;-89
2024/04/04 03:59:52;;;;;;;0.50;0.50;;;-2.80;99.90;;;;;;1902396;73;25199;-88
2024/04/04 04:02:43;;;;;;;2.43;0.90;;;-2.80;99.90;;;;;;1861428;76;25226;-88
2024/04/04 04:05:32;;;;;;;0.93;0.77;;;-2.90;99.90;;;;;;1838207;76;25303;-88
2024/04/04 04:08:22;;;;;;;0.80;0.80;;;-2.90;99.90;;;;;;1885077;73;25200;-88
2024/04/04 04:11:11;;;;;;;1.00;0.70;;;-2.90;99.90;;;;;;1852579;76;25261;-87
2024/04/04 04:14:00;;;;;;;1.50;0.90;;;-2.90;99.90;;;;;;1832902;76;25871;-89
2024/04/04 04:16:49;;;;;;;1.23;0.70;;;-2.90;99.90;;;;;;1844774;76;25261;-88
2024/04/04 04:19:41;;;;;;;0.73;0.73;;;-3.00;99.90;;;;;;1815531;78;25292;-88
2024/04/04 04:22:30;;;;;;;0.70;0.70;;;-2.90;99.90;;;;;;1897244;73;25230;-88
2024/04/04 04:25:20;;;;;;;1.67;0.90;;;-2.90;99.90;;;;;;1863692;75;25326;-88
2024/04/04 04:28:09;;;;;;;1.50;0.80;;;-2.90;99.90;;;;;;1824914;77;25192;-87
2024/04/04 04:30:58;;;;;;;2.23;1.07;;;-3.00;99.90;;;;;;1912096;73;25722;-88
2024/04/04 04:33:48;;;;;;;2.10;1.13;;;-2.90;99.90;;;;;;1850686;76;25300;-88
2024/04/04 04:39:51;;;;;;;0.70;0.70;;;-2.90;99.90;;;;;;1991225;71;27580;-89
2024/04/04 04:45:26;;;;;;;0.70;0.60;;;-3.00;99.90;;;;;;1938733;72;27638;-89
2024/04/04 04:51:03;;;;;;;1.90;0.63;;;-2.90;99.90;;;;;;1949241;72;27422;-89
2024/04/04 04:53:57;;;;;;;5.53;2.40;;;-2.90;99.90;;;;;;1881394;75;25237;-88
2024/04/04 04:56:47;;;;;;;0.40;0.40;;;-2.80;99.90;;;;;;1908905;75;25493;-88
2024/04/04 04:59:36;;;;;;;3.53;0.83;;;-2.80;99.90;;;;;;1869954;75;25733;-89
2024/04/04 05:02:25;;;;;;;2.63;0.63;;;-2.80;99.90;;;;;;1895243;75;25612;-89
2024/04/04 05:05:19;;;;;;;2.07;0.90;;;-2.70;99.90;;;;;;1893651;75;25220;-89
2024/04/04 05:08:09;;;;;;;1.07;0.83;;;-2.70;99.90;;;;;;1884904;75;25250;-87
2024/04/04 05:11:03;;;;;;;1.13;1.00;;;-2.70;99.90;;;;;;1869796;75;25286;-89
2024/04/04 05:13:53;;;;;;;0.60;0.60;;;-2.70;99.90;;;;;;1907439;75;25246;-90
2024/04/04 05:16:46;;;;;;;1.10;0.93;;;-2.70;99.90;;;;;;1883419;75;26264;-90
2024/04/04 05:19:36;;;;;;;0.70;0.70;;;-2.60;99.90;;;;;;1857127;75;25305;-90
2024/04/04 05:22:29;;;;;;;1.17;0.70;;;-2.60;99.90;;;;;;1886461;75;25221;-89
2024/04/04 05:29:35;;;;;;;2.30;1.17;;;-2.70;99.90;;;;;;1978817;71;27680;-90
2024/04/04 05:32:26;;;;;;;1.80;0.97;;;-2.60;99.90;;;;;;1953147;72;25284;-90
2024/04/04 05:35:16;;;;;;;2.07;0.83;;;-2.50;99.90;;;;;;1938064;72;25698;-90
2024/04/04 05:38:06;;;;;;;0.70;0.63;;;-2.50;99.90;;;;;;1961871;72;25156;-90
2024/04/04 05:40:55;;;;;;;1.27;0.77;;;-2.50;99.90;;;;;;1975587;72;25168;-90
2024/04/04 05:43:44;;;;;;;1.47;0.93;;;-2.50;99.90;;;;;;1969564;72;25191;-90
2024/04/04 05:46:33;;;;;;;1.30;0.63;;;-2.50;99.90;;;;;;1972324;72;25144;-90
2024/04/04 05:49:25;;;;;;;0.60;0.60;;;-2.50;99.90;;;;;;1954267;72;25749;-90
2024/04/04 05:55:38;;;;;;;0.83;0.67;;;-2.50;99.90;;;;;;1992026;71;27553;-89
2024/04/04 05:58:27;;;;;;;1.93;0.90;;;-2.50;99.90;;;;;;1949530;72;25304;-90
2024/04/04 06:01:16;;;;;;;1.47;1.10;;;-2.50;99.90;;;;;;2058220;69;25217;-89
2024/04/04 06:04:05;;;;;;;5.50;0.97;;;-2.40;99.90;;;;;;2039767;69;25192;-89
2024/04/04 06:06:54;;;;;;;1.70;0.80;;;-2.40;99.90;;;;;;2033711;69;25199;-88
2024/04/04 06:09:45;;;;;;;0.40;0.40;;;-2.20;99.90;;;;;;2032511;69;25175;-88
2024/04/04 06:12:35;;;;;;;0.73;0.73;;;-2.30;99.90;;;;;;2058208;69;25223;-90
2024/04/04 06:15:24;;;;;;;0.67;0.67;;;-2.30;99.90;;;;;;1985098;72;25248;-90
2024/04/04 06:21:59;;;;;;;0.60;0.60;;;-2.20;99.90;;;;;;2007769;71;28310;-89
2024/04/04 06:30:49;;;;;;;2.90;0.90;;;-2.00;99.90;;;;;;1976302;71;26275;-89
2024/04/04 06:33:40;;;;;;;0.60;0.60;;;-1.90;99.90;;;;;;2046727;69;25991;-89
2024/04/04 06:39:31;;;;;;;3.00;0.70;;;-1.80;99.90;;;;;;1902373;74;27117;-90
2024/04/04 06:42:21;;;;;;;3.30;0.90;;;-1.90;99.90;;;;;;1823912;77;25577;-89
2024/04/04 06:45:11;;;;;;;1.50;0.60;;;-1.90;99.90;;;;;;1838902;77;25280;-88
2024/04/04 06:48:02;;;;;;;2.50;0.80;;;-1.80;99.90;;;;;;1817867;77;25827;-89
2024/04/04 06:50:52;;;;;;;0.60;0.60;;;-1.80;99.90;;;;;;1828938;77;25247;-89
2024/04/04 06:53:58;;;;;;;0.60;0.60;;;-1.80;99.90;;;;;;1818916;77;25240;-89
2024/04/04 06:56:50;;;;;;;1.07;0.83;;;-1.80;99.90;;;;;;1828375;76;25673;-91
2024/04/04 07:00:00;;;;;;;0.30;0.30;;;-1.70;99.90;;;;;;1841128;77;25234;-89
2024/04/04 07:03:14;;;;;;;0.73;0.70;;;-1.50;99.90;;;;;;1837913;77;25189;-89
2024/04/04 07:06:06;;;;;;;4.63;1.00;;;-1.50;99.90;;;;;;1783781;79;25222;-90
2024/04/04 07:08:58;;;;;;;0.77;0.77;;;-1.30;99.90;;;;;;1811165;78;25232;-90
2024/04/04 07:11:52;;;;;;;1.53;0.90;;;-1.10;99.90;;;;;;1780348;80;25310;-90
2024/04/04 07:15:11;;;;;;;0.50;0.50;;;-1.20;99.90;;;;;;1778581;79;25290;-90
2024/04/04 07:18:02;;;;;;;10.60;0.90;;;-1.40;99.90;;;;;;1780551;79;25375;-90
2024/04/04 07:24:18;;;;;;;2.00;1.30;;;-1.40;99.90;;;;;;1941369;72;27609;-90
2024/04/04 07:27:09;;;;;;;1.47;1.37;;;-1.30;99.90;;;;;;1905070;75;25172;-89
2024/04/04 07:30:01;;;;;;;2.67;1.00;;;-1.30;99.90;;;;;;1911339;73;25203;-89
2024/04/04 07:32:51;;;;;;;1.37;0.90;;;-1.30;99.90;;;;;;1895286;74;26435;-89
2024/04/04 07:35:41;;;;;;;0.40;0.40;;;-1.30;99.90;;;;;;1912949;74;25228;-90
2024/04/04 07:38:38;;;;;;;2.20;1.07;;;-1.10;99.90;;;;;;1890412;73;25295;-89
2024/04/04 07:41:29;;;;;;;1.53;0.87;;;-1.10;99.90;;;;;;1878572;75;25259;-91
2024/04/04 07:47:09;;;;;;;1.47;0.90;;;-1.00;99.90;;;;;;1942495;72;27306;-90
2024/04/04 07:52:54;;;;;;;0.73;0.73;;;-1.00;99.90;;;;;;1949533;72;27777;-90
2024/04/04 07:55:45;;;;;;;2.43;1.00;;;-1.10;99.90;;;;;;1904424;75;25295;-90
2024/04/04 07:58:34;;;;;;;2.37;0.73;;;-1.10;99.90;;;;;;1932453;73;25253;-90
2024/04/04 08:01:24;;;;;;;0.80;0.67;;;-1.10;99.90;;;;;;1917557;72;25332;-89
2024/04/04 08:07:06;;;;;;;2.07;1.00;;;-1.10;99.90;;;;;;1964142;72;26900;-90
2024/04/04 08:13:06;;;;;;;5.67;1.17;;;-0.70;99.90;;;;;;1963725;71;27041;-90
2024/04/04 08:15:57;;;;;;;2.20;0.90;;;-0.80;99.90;;;;;;1889693;75;25223;-91
2024/04/04 08:22:22;;;;;;;0.70;0.70;;;-1.00;99.90;;;;;;1904006;75;25355;-90
2024/04/04 08:25:14;;;;;;;3.50;1.13;;;-1.00;99.90;;;;;;1918493;72;25226;-90
2024/04/04 08:28:04;;;;;;;0.80;0.80;;;-1.00;99.90;;;;;;1906961;75;25253;-90
2024/04/04 09:06:50;;;;;;;1.63;1.10;;;-0.60;99.90;;;;;;2037293;69;27595;-90
2024/04/04 09:09:53;;;;;;;3.33;1.00;;;-0.40;99.90;;;;;;1984534;71;25228;-90
2024/04/04 09:19:30;;;;;;;0.60;0.60;;;-0.10;99.90;;;;;;1964005;72;27038;-91
2024/04/04 09:22:25;;;;;;;3.63;0.70;;;0.00;99.90;;;;;;1926358;72;25290;-90
2024/04/04 09:25:22;;;;;;;1.33;1.03;;;0.20;99.90;;;;;;1948133;72;25161;-90
2024/04/04 09:31:57;;;;;;;2.77;0.70;;;-0.10;99.90;;;;;;1868709;76;25192;-90
2024/04/04 09:38:07;;;;;;;4.40;1.00;;;0.20;99.90;;;;;;1958762;72;28030;-90
2024/04/04 09:41:42;;;;;;;1.83;0.80;;;0.30;99.90;;;;;;1907630;74;25707;-91
2024/04/04 09:47:33;;;;;;;1.57;1.10;;;0.20;99.90;;;;;;1942486;72;27457;-92
2024/04/04 09:50:22;;;;;;;1.90;0.90;;;-0.10;99.90;;;;;;1923603;74;25210;-92
2024/04/04 09:53:31;;;;;;;1.20;1.10;;;0.00;99.90;;;;;;1940628;73;25286;-93
2024/04/04 09:56:54;;;;;;;1.20;1.10;;;0.40;99.90;;;;;;1912146;74;25275;-92
2024/04/04 09:59:48;;;;;;;1.37;0.80;;;0.10;99.90;;;;;;1902280;74;25167;-92
2024/04/04 10:03:26;;;;;;;1.37;0.90;;;0.00;99.90;;;;;;1938843;73;25165;-92
2024/04/04 10:06:41;;;;;;;2.30;0.70;;;0.20;99.90;;;;;;1895782;74;25862;-92
2024/04/04 10:09:51;;;;;;;3.50;1.00;;;0.20;99.90;;;;;;1915319;74;25223;-92
2024/04/04 11:01:41;;;;;;;0.67;0.67;;;0.50;99.90;;;;;;1967066;71;27689;-92
2024/04/04 12:16:44;;;;;;;3.87;1.23;;;0.60;99.90;;;;;;1950883;72;27343;-92
2024/04/04 12:19:35;;;;;;;0.93;0.93;;;0.60;99.90;;;;;;1916878;73;25227;-92
2024/04/04 12:22:25;;;;;;;0.77;0.77;;;0.60;99.90;;;;;;1926316;73;25217;-91
2024/04/04 12:25:23;;;;;;;8.07;1.07;;;0.40;99.90;;;;;;1876970;76;25302;-92
2024/04/04 12:28:19;;;;;;;2.07;0.93;;;0.10;99.90;;;;;;1920982;73;25230;-91
2024/04/04 12:31:12;;;;;;;0.80;0.80;;;-0.10;99.90;;;;;;1923323;73;25219;-91
2024/04/04 12:34:15;;;;;;;0.80;0.77;;;-0.20;99.90;;;;;;1911144;75;25259;-91
2024/04/04 12:41:14;;;;;;;12.93;1.20;;;-0.10;99.90;;;;;;1909397;75;25239;-91
2024/04/04 13:09:45;;;;;;;3.77;1.40;;;-0.30;99.90;;;;;;1945250;72;26857;-92
2024/04/04 13:12:34;;;;;;;4.00;1.60;;;-0.40;99.90;;;;;;1943405;72;25263;-92
2024/04/04 13:15:23;;;;;;;1.47;1.20;;;-0.40;99.90;;;;;;1952168;73;25287;-93
2024/04/04 13:18:12;;;;;;;2.80;1.70;;;-0.40;99.90;;;;;;1930986;73;25168;-92
2024/04/04 13:21:07;;;;;;;1.80;1.10;;;-0.40;99.90;;;;;;1923417;73;25760;-92
2024/04/04 13:23:58;;;;;;;2.73;1.27;;;-0.40;99.90;;;;;;1919743;72;25237;-92
2024/04/04 13:26:48;;;;;;;2.07;1.37;;;-0.50;99.90;;;;;;1935405;73;25675;-92
2024/04/04 13:29:40;;;;;;;2.57;1.20;;;-0.70;99.90;;;;;;1931738;73;25232;-92
2024/04/04 13:32:50;;;;;;;4.03;1.30;;;-0.80;99.90;;;;;;1896886;73;25243;-92
2024/04/04 13:51:51;;;;;;;4.13;1.70;;;-0.60;99.90;;;;;;1926455;73;26357;-94
2024/04/04 17:43:50;;;;;;;6.20;2.00;;;-0.50;99.90;;;;;;1800572;76;25409;-91
2024/04/04 21:29:40;;;;;;;5.13;1.97;;;-0.90;99.90;;;;;;1828257;77;25389;-92
